Time;durP1;ratioP1;P1;durP2;ratioP2;P2;SDS_P1;SDS_P2;PMS_P1;PMS_P2;Temp;Humidity;BMP_temperature;BMP_pressure;BME280_temperature;BME280_humidity;BME280_pressure;Samples;Min_cycle;Max_cycle;Signal;HPM_P1;HPM_P2
2024/01/18 00:11:59;;;;;;;248.80;115.03;;;;;;;-1.62;100.00;99131.22;4878690;29;20114;-95
2024/01/18 00:37:46;;;;;;;13.25;6.78;;;;;;;-2.35;100.00;99180.56;4798522;29;20420;-95
2024/01/18 00:45:23;;;;;;;10.18;4.38;;;;;;;-2.64;100.00;99194.31;4800555;29;20146;-96
2024/01/18 01:14:21;;;;;;;11.20;6.55;;;;;;;-2.81;100.00;99216.00;4930382;29;20043;-95
2024/01/18 01:43:58;;;;;;;8.55;4.00;;;;;;;-2.60;100.00;99246.72;4887776;29;20121;-96
2024/01/18 01:53:07;;;;;;;8.88;5.25;;;;;;;-2.56;100.00;99262.88;4747883;30;20043;-96
2024/01/18 02:20:39;;;;;;;14.38;7.18;;;;;;;-3.52;100.00;99326.75;4677930;30;20479;-96
2024/01/18 02:24:03;;;;;;;10.60;5.85;;;;;;;-3.55;100.00;99332.06;4706360;30;20582;-94
2024/01/18 04:09:02;;;;;;;7.60;4.00;;;;;;;-2.87;100.00;99438.75;4915855;29;20088;-96
2024/01/18 04:12:36;;;;;;;7.22;4.10;;;;;;;-2.84;100.00;99441.19;4892668;29;20031;-96
2024/01/18 04:16:22;;;;;;;;;;;;;;;;;;;;;
2024/01/18 04:19:55;;;;;;;10.65;5.80;;;;;;;-2.93;100.00;99470.13;4803709;29;20052;-96
2024/01/18 04:26:34;;;;;;;12.00;6.00;;;;;;;-2.85;100.00;99460.19;4833907;29;20498;-96
2024/01/18 04:42:57;;;;;;;8.65;4.90;;;;;;;-2.89;100.00;99469.88;4841888;29;20082;-96
2024/01/18 04:45:45;;;;;;;8.05;5.18;;;;;;;-2.92;100.00;99469.19;4839046;29;20125;-96
2024/01/18 04:48:13;;;;;;;8.10;4.57;;;;;;;-2.99;100.00;99468.69;4822448;29;20060;-96
2024/01/18 04:59:11;;;;;;;7.32;4.60;;;;;;;-2.84;100.00;99495.50;4811710;29;20055;-94
2024/01/18 05:22:12;;;;;;;3.30;2.10;;;;;;;-2.57;100.00;99535.47;4916562;29;20044;-96
2024/01/18 05:24:39;;;;;;;5.20;2.63;;;;;;;-2.54;100.00;99541.31;4900203;29;20500;-95
2024/01/18 05:27:06;;;;;;;3.38;2.15;;;;;;;-2.54;100.00;99530.97;4906422;29;20079;-95
2024/01/18 05:29:32;;;;;;;7.65;2.35;;;;;;;-2.52;100.00;99539.50;4899711;29;20406;-96
2024/01/18 05:31:58;;;;;;;4.82;2.60;;;;;;;-2.53;100.00;99550.75;4919730;29;20043;-95
2024/01/18 05:34:24;;;;;;;5.30;2.70;;;;;;;-2.50;100.00;99554.94;4915660;29;20067;-96
2024/01/18 05:36:50;;;;;;;4.85;2.67;;;;;;;-2.48;100.00;99557.44;4899484;29;20040;-96
2024/01/18 05:39:15;;;;;;;5.07;2.50;;;;;;;-2.48;100.00;99558.25;4901804;29;20040;-95
2024/01/18 05:41:41;;;;;;;4.63;2.58;;;;;;;-2.49;100.00;99559.19;4891568;29;20039;-96
2024/01/18 05:44:07;;;;;;;4.75;2.60;;;;;;;-2.44;100.00;99574.47;4910913;29;20043;-96
2024/01/18 05:46:33;;;;;;;5.10;2.53;;;;;;;-2.45;100.00;99575.41;4883555;29;20059;-95
2024/01/18 05:48:59;;;;;;;5.32;2.70;;;;;;;-2.52;100.00;99567.13;4898054;29;20469;-96
2024/01/18 05:51:25;;;;;;;6.60;2.67;;;;;;;-2.46;100.00;99592.66;4890135;29;20039;-95
2024/01/18 05:53:51;;;;;;;5.05;2.90;;;;;;;-2.46;100.00;99600.44;4899875;29;20378;-96
2024/01/18 05:56:16;;;;;;;5.18;3.00;;;;;;;-2.49;100.00;99605.78;4901370;29;20032;-96
2024/01/18 05:58:42;;;;;;;3.65;2.60;;;;;;;-2.49;100.00;99600.59;4915645;29;20027;-96
2024/01/18 06:01:09;;;;;;;5.82;3.10;;;;;;;-2.46;100.00;99612.53;4901811;29;20031;-96
2024/01/18 06:03:35;;;;;;;4.07;2.35;;;;;;;-2.47;100.00;99611.72;4914711;29;20051;-95
2024/01/18 06:06:04;;;;;;;5.13;3.00;;;;;;;-2.42;100.00;99614.88;4918763;29;20054;-95
2024/01/18 06:08:30;;;;;;;5.32;2.45;;;;;;;-2.44;100.00;99623.66;4897547;29;20047;-95
2024/01/18 06:10:56;;;;;;;4.47;3.08;;;;;;;-2.37;100.00;99636.19;4915081;29;20036;-96
2024/01/18 06:13:22;;;;;;;4.18;2.50;;;;;;;-2.36;100.00;99634.44;4914030;29;20087;-96
2024/01/18 06:15:48;;;;;;;7.53;2.83;;;;;;;-2.34;100.00;99639.53;4901567;29;20043;-96
2024/01/18 06:18:14;;;;;;;4.07;2.53;;;;;;;-2.35;100.00;99630.06;4915060;29;20504;-96
2024/01/18 06:20:41;;;;;;;2.88;2.40;;;;;;;-2.32;100.00;99637.69;4911258;29;20051;-96
2024/01/18 06:23:06;;;;;;;4.03;2.65;;;;;;;-2.30;100.00;99641.03;4913279;29;20075;-96
2024/01/18 06:25:32;;;;;;;4.13;2.50;;;;;;;-2.30;100.00;99646.22;4896846;29;20052;-96
2024/01/18 06:27:58;;;;;;;3.30;2.38;;;;;;;-2.30;100.00;99651.38;4902881;29;20086;-96
2024/01/18 06:30:24;;;;;;;5.88;3.03;;;;;;;-2.28;100.00;99655.56;4897975;29;20036;-96
2024/01/18 06:32:50;;;;;;;6.65;2.83;;;;;;;-2.30;100.00;99651.38;4900489;29;20039;-96
2024/01/18 06:35:16;;;;;;;3.78;2.50;;;;;;;-2.27;100.00;99658.97;4899424;29;20043;-96
2024/01/18 06:37:42;;;;;;;4.45;2.53;;;;;;;-2.26;100.00;99660.66;4917129;29;20071;-95
2024/01/18 06:40:09;;;;;;;5.15;2.83;;;;;;;-2.26;100.00;99664.09;4903925;29;20039;-96
2024/01/18 06:42:35;;;;;;;5.95;2.97;;;;;;;-2.24;100.00;99674.34;4910475;29;20032;-96
2024/01/18 06:45:02;;;;;;;5.28;2.53;;;;;;;-2.27;100.00;99669.34;4900360;29;20039;-96
2024/01/18 06:47:28;;;;;;;4.72;2.65;;;;;;;-2.25;100.00;99681.31;4901730;29;20075;-96
2024/01/18 06:49:54;;;;;;;5.18;2.72;;;;;;;-2.28;100.00;99680.63;4883192;29;20037;-96
2024/01/18 06:52:20;;;;;;;9.50;2.58;;;;;;;-2.27;100.00;99688.31;4897971;29;20039;-96
2024/01/18 06:54:46;;;;;;;3.45;2.08;;;;;;;-2.30;100.00;99687.63;4908577;29;20074;-95
2024/01/18 06:57:12;;;;;;;4.47;2.47;;;;;;;-2.28;100.00;99686.63;4920061;29;20102;-96
2024/01/18 06:59:46;;;;;;;5.13;2.50;;;;;;;-2.19;100.00;99687.91;4902297;29;20445;-96
2024/01/18 07:02:12;;;;;;;4.97;2.20;;;;;;;-2.21;100.00;99688.91;4903947;29;20457;-96
2024/01/18 07:04:38;;;;;;;3.08;1.63;;;;;;;-2.22;100.00;99689.81;4903823;29;20039;-95
2024/01/18 07:07:04;;;;;;;7.22;2.45;;;;;;;-2.23;100.00;99686.41;4923231;29;20126;-95
2024/01/18 07:09:32;;;;;;;5.95;2.30;;;;;;;-2.23;100.00;99686.41;4893664;29;20043;-95
2024/01/18 07:11:58;;;;;;;3.05;1.88;;;;;;;-2.18;100.00;99697.34;4902514;29;20043;-96
2024/01/18 07:14:24;;;;;;;4.95;1.83;;;;;;;-2.15;100.00;99699.75;4917489;29;20041;-95
2024/01/18 07:16:50;;;;;;;8.45;5.55;;;;;;;-2.12;100.00;99702.19;4903313;29;20118;-96
2024/01/18 07:19:16;;;;;;;2.85;1.50;;;;;;;-2.11;100.00;99708.22;4915877;29;20044;-96
2024/01/18 07:21:42;;;;;;;2.60;1.50;;;;;;;-2.11;100.00;99715.97;4914916;29;20062;-96
2024/01/18 07:24:08;;;;;;;4.82;2.40;;;;;;;-2.09;100.00;99721.91;4902097;29;20441;-96
2024/01/18 07:26:34;;;;;;;2.13;1.58;;;;;;;-2.09;100.00;99724.50;4900471;29;20408;-96
2024/01/18 07:29:00;;;;;;;4.82;1.85;;;;;;;-2.09;100.00;99724.50;4907878;29;20122;-96
2024/01/18 07:31:26;;;;;;;3.63;1.33;;;;;;;-2.09;100.00;99724.50;4897252;29;20043;-95
2024/01/18 07:33:51;;;;;;;2.72;1.35;;;;;;;-2.12;100.00;99735.84;4910801;29;20036;-96
2024/01/18 07:36:18;;;;;;;2.25;1.40;;;;;;;-2.08;100.00;99736.53;4903311;29;20068;-96
2024/01/18 07:38:43;;;;;;;4.50;1.73;;;;;;;-2.03;100.00;99746.66;4899895;29;20039;-96
2024/01/18 07:41:09;;;;;;;1.55;1.30;;;;;;;-2.05;100.00;99748.47;4906245;29;20044;-95
2024/01/18 07:43:35;;;;;;;6.13;1.60;;;;;;;-2.11;100.00;99741.88;4903089;29;20045;-95
2024/01/18 07:46:02;;;;;;;6.13;2.17;;;;;;;-2.12;100.00;99756.56;4903680;29;20046;-96
2024/01/18 07:48:30;;;;;;;2.30;1.52;;;;;;;-2.08;100.00;99765.00;4905416;29;20102;-96
2024/01/18 07:50:56;;;;;;;3.60;2.03;;;;;;;-2.15;100.00;99764.50;4879931;29;20036;-96
2024/01/18 07:53:23;;;;;;;3.47;1.80;;;;;;;-2.11;100.00;99778.13;4907863;29;20083;-94
2024/01/18 07:55:50;;;;;;;3.65;2.10;;;;;;;-2.15;100.00;99769.66;4905232;29;20040;-96
2024/01/18 07:58:25;;;;;;;5.47;2.40;;;;;;;-2.11;100.00;99780.72;4891586;29;20093;-96
2024/01/18 08:00:51;;;;;;;3.37;1.67;;;;;;;-2.14;100.00;99781.72;4900899;29;20031;-96
2024/01/18 08:03:17;;;;;;;3.28;1.50;;;;;;;-2.17;100.00;99794.81;4896218;29;20044;-95
2024/01/18 08:05:43;;;;;;;4.43;1.73;;;;;;;-2.18;100.00;99795.72;4900940;29;20043;-96
2024/01/18 08:08:08;;;;;;;3.05;2.05;;;;;;;-2.23;100.00;99800.31;4918413;29;20028;-96
2024/01/18 08:10:34;;;;;;;3.70;1.75;;;;;;;-2.25;100.00;99805.56;4904286;29;20067;-96
2024/01/18 08:13:02;;;;;;;4.75;2.30;;;;;;;-2.27;100.00;99806.53;4903626;29;20047;-96
2024/01/18 08:15:28;;;;;;;5.47;2.03;;;;;;;-2.27;100.00;99814.31;4900829;29;20040;-96
2024/01/18 08:17:57;;;;;;;3.38;2.10;;;;;;;-2.32;100.00;99830.06;4901785;29;20374;-96
2024/01/18 08:20:23;;;;;;;4.40;2.90;;;;;;;-2.31;100.00;99841.28;4903375;29;20385;-96
2024/01/18 08:22:49;;;;;;;4.80;2.60;;;;;;;-2.37;100.00;99837.22;4905948;29;20035;-96
2024/01/18 08:25:15;;;;;;;3.35;2.10;;;;;;;-2.38;100.00;99845.91;4907262;29;20044;-96
2024/01/18 08:27:43;;;;;;;3.22;2.03;;;;;;;-2.35;100.00;99847.50;4892997;29;20121;-96
2024/01/18 08:31:06;;;;;;;4.82;2.65;;;;;;;-2.37;100.00;99851.00;4906261;29;20044;-96
2024/01/18 08:33:35;;;;;;;3.85;2.50;;;;;;;-2.45;100.00;99863.50;4900083;29;20036;-96
2024/01/18 08:36:01;;;;;;;3.88;2.70;;;;;;;-2.50;100.00;99862.91;4913982;29;20472;-96
2024/01/18 08:38:27;;;;;;;4.65;3.30;;;;;;;-2.51;100.00;99871.56;4903248;29;20487;-96
2024/01/18 08:41:17;;;;;;;5.10;3.22;;;;;;;-2.50;100.00;99866.31;4906116;29;20126;-92
2024/01/18 08:43:43;;;;;;;5.90;2.95;;;;;;;-2.58;100.00;99885.72;4892389;29;20050;-96
2024/01/18 08:46:09;;;;;;;3.70;2.60;;;;;;;-2.55;100.00;99894.16;4913756;29;20405;-95
2024/01/18 08:48:38;;;;;;;6.45;3.13;;;;;;;-2.55;100.00;99893.31;4908720;29;20036;-96
2024/01/18 08:51:04;;;;;;;11.60;3.72;;;;;;;-2.56;100.00;99896.81;4930683;29;20035;-96
2024/01/18 08:53:31;;;;;;;6.88;3.53;;;;;;;-2.50;100.00;99902.53;4903625;29;20503;-96
2024/01/18 08:55:57;;;;;;;6.85;3.00;;;;;;;-2.48;100.00;99907.63;4901605;29;20110;-96
2024/01/18 08:58:52;;;;;;;4.68;2.78;;;;;;;-2.47;100.00;99911.06;4904357;29;20039;-96
2024/01/18 09:01:18;;;;;;;5.82;3.15;;;;;;;-2.45;100.00;99923.00;4899776;29;20187;-95
2024/01/18 09:03:43;;;;;;;10.40;7.63;;;;;;;-2.46;100.00;99925.69;4901151;29;20656;-87
2024/01/18 09:06:09;;;;;;;5.68;3.53;;;;;;;-2.44;100.00;99936.81;4917022;29;20457;-96
2024/01/18 09:08:35;;;;;;;4.75;3.42;;;;;;;-2.44;100.00;99947.16;4901839;29;20348;-95
2024/01/18 09:11:01;;;;;;;6.82;3.95;;;;;;;-2.42;100.00;99945.34;4916347;29;20046;-96
2024/01/18 09:13:27;;;;;;;4.47;3.30;;;;;;;-2.39;100.00;99952.97;4902607;29;20408;-95
2024/01/18 09:15:53;;;;;;;6.50;3.45;;;;;;;-2.38;100.00;99949.47;4902651;29;21426;-96
2024/01/18 09:18:19;;;;;;;6.93;3.13;;;;;;;-2.33;100.00;99957.00;4900857;29;20036;-95
2024/01/18 09:20:45;;;;;;;7.45;3.75;;;;;;;-2.29;100.00;99956.78;4916751;29;20036;-95
2024/01/18 09:23:12;;;;;;;5.60;3.35;;;;;;;-2.23;100.00;99949.63;4902230;29;20134;-95
2024/01/18 09:25:39;;;;;;;12.50;4.07;;;;;;;-2.17;100.00;99950.19;4901704;29;20047;-96
2024/01/18 09:28:07;;;;;;;10.95;3.90;;;;;;;-2.16;100.00;99957.03;4917248;29;20099;-95
2024/01/18 09:30:37;;;;;;;13.60;5.93;;;;;;;-2.12;100.00;99963.72;4900926;29;20059;-96
2024/01/18 09:33:03;;;;;;;8.10;4.40;;;;;;;-2.09;100.00;99964.50;4901473;29;20136;-96
2024/01/18 09:35:29;;;;;;;14.85;6.13;;;;;;;-2.03;100.00;99967.63;4911502;29;20097;-95
2024/01/18 09:37:56;;;;;;;21.90;9.13;;;;;;;-2.00;100.00;99969.22;4903087;29;20047;-96
2024/01/18 09:40:22;;;;;;;22.42;9.43;;;;;;;-1.92;100.00;99974.03;4883971;29;20146;-96
2024/01/18 09:42:50;;;;;;;17.65;8.30;;;;;;;-1.82;100.00;99977.00;4902363;29;20031;-95
2024/01/18 09:45:21;;;;;;;13.48;7.40;;;;;;;-1.80;100.00;99976.00;4886360;29;20031;-95
2024/01/18 09:51:43;;;;;;;3.80;2.30;;;;;;;-1.66;100.00;99988.31;4914655;29;20480;-95
2024/01/18 09:54:09;;;;;;;6.57;2.08;;;;;;;-1.60;100.00;99994.91;4903641;29;20062;-96
2024/01/18 09:56:42;;;;;;;5.10;2.80;;;;;;;-1.46;100.00;100001.16;4891031;29;20063;-95
2024/01/18 09:59:11;;;;;;;7.03;6.07;;;;;;;-1.36;100.00;100012.75;4886463;29;20604;-96
2024/01/18 10:01:37;;;;;;;2.95;1.98;;;;;;;-1.34;100.00;100008.31;4898671;29;20126;-96
2024/01/18 10:04:03;;;;;;;4.63;2.42;;;;;;;-1.21;100.00;100018.88;4897734;29;20039;-96
2024/01/18 10:06:29;;;;;;;6.13;2.30;;;;;;;-1.14;100.00;100015.06;4887224;29;20046;-95
2024/01/18 10:08:55;;;;;;;4.13;2.03;;;;;;;-1.04;100.00;100019.78;4885739;29;20044;-95
2024/01/18 10:11:21;;;;;;;8.32;2.85;;;;;;;-0.95;100.00;100024.50;4904237;29;20126;-95
2024/01/18 10:13:51;;;;;;;3.53;2.35;;;;;;;-0.85;100.00;100031.78;4904748;29;20040;-96
2024/01/18 10:16:32;;;;;;;3.55;1.65;;;;;;;-0.74;100.00;100047.63;4879319;29;20039;-96
2024/01/18 10:19:00;;;;;;;4.47;1.95;;;;;;;-0.68;100.00;100047.31;4881539;29;20054;-96
2024/01/18 10:21:26;;;;;;;3.05;2.13;;;;;;;-0.63;100.00;100055.69;4894609;29;20147;-94
2024/01/18 10:23:54;;;;;;;3.55;2.85;;;;;;;-0.54;100.00;100053.53;4878926;29;20035;-94
2024/01/18 10:26:27;;;;;;;4.85;2.42;;;;;;;-0.45;100.00;100063.44;4885511;29;20067;-94
2024/01/18 10:28:53;;;;;;;3.35;2.10;;;;;;;-0.40;100.00;100066.59;4888962;29;20127;-93
2024/01/18 10:31:19;;;;;;;4.63;2.25;;;;;;;-0.35;100.00;100068.13;4906055;29;20031;-94
2024/01/18 10:33:46;;;;;;;5.07;3.05;;;;;;;-0.28;100.00;100079.84;4889309;29;20028;-95
2024/01/18 10:36:12;;;;;;;5.75;2.80;;;;;;;-0.28;100.00;100077.25;4904211;29;20040;-94
2024/01/18 10:38:41;;;;;;;3.70;2.30;;;;;;;-0.21;100.00;100090.75;4904574;29;20126;-94
2024/01/18 10:41:08;;;;;;;7.47;4.13;;;;;;;-0.17;100.00;100092.25;4895017;29;20049;-94
2024/01/18 10:43:35;;;;;;;5.25;2.22;;;;;;;-0.15;100.00;100096.44;4885639;29;20047;-94
2024/01/18 10:46:02;;;;;;;5.10;2.33;;;;;;;-0.13;100.00;100104.16;4886109;29;20106;-95
2024/01/18 10:48:33;;;;;;;8.50;3.42;;;;;;;-0.06;100.00;100104.63;4906572;29;20039;-95
2024/01/18 10:51:00;;;;;;;6.45;3.08;;;;;;;-0.03;100.00;100112.25;4894953;29;20036;-94
2024/01/18 10:53:34;;;;;;;5.10;2.63;;;;;;;0.00;100.00;100127.72;4905065;29;20373;-95
2024/01/18 10:56:01;;;;;;;16.55;13.65;;;;;;;0.08;100.00;100135.09;4900814;29;20032;-95
2024/01/18 10:58:27;;;;;;;6.65;2.92;;;;;;;0.15;100.00;100136.41;4903234;29;20031;-95
2024/01/18 11:00:54;;;;;;;4.53;2.63;;;;;;;0.19;100.00;100137.91;4911394;29;20074;-95
2024/01/18 11:03:20;;;;;;;5.43;2.50;;;;;;;0.26;100.00;100140.16;4901237;29;20044;-95
2024/01/18 11:05:50;;;;;;;4.85;2.75;;;;;;;0.32;100.00;100137.25;4927285;29;20035;-94
2024/01/18 11:08:17;;;;;;;8.27;3.00;;;;;;;0.38;100.00;100142.13;4891995;29;20095;-94
2024/01/18 11:10:46;;;;;;;5.57;2.75;;;;;;;0.43;100.00;100132.28;4935983;29;20035;-94
2024/01/18 11:13:15;;;;;;;3.13;1.95;;;;;;;0.50;100.00;100130.16;4903496;29;20027;-94
2024/01/18 11:15:43;;;;;;;6.13;2.35;;;;;;;0.50;100.00;100135.38;4901437;29;20036;-95
2024/01/18 11:18:13;;;;;;;4.55;2.72;;;;;;;0.57;100.00;100128.91;4920075;29;20476;-95
2024/01/18 11:21:11;;;;;;;5.72;2.50;;;;;;;0.74;100.00;100146.16;4902577;29;20060;-95
2024/01/18 11:23:39;;;;;;;6.32;2.63;;;;;;;0.79;100.00;100147.63;4889582;29;20058;-94
2024/01/18 11:26:07;;;;;;;3.22;1.55;;;;;;;0.86;100.00;100157.59;4901398;29;20043;-94
2024/01/18 11:28:35;;;;;;;3.90;1.98;;;;;;;0.95;100.00;100158.00;4902031;29;20039;-95
2024/01/18 11:31:01;;;;;;;3.85;2.08;;;;;;;1.01;100.00;100164.59;4889650;29;20039;-95
2024/01/18 11:33:28;;;;;;;9.13;1.50;;;;;;;1.07;100.00;100159.88;4903599;29;20048;-95
2024/01/18 11:35:55;;;;;;;7.40;2.50;;;;;;;1.13;100.00;100168.28;4877882;29;20493;-95
2024/01/18 11:38:27;;;;;;;4.05;2.05;;;;;;;1.22;100.00;100168.56;4890496;29;20039;-96
2024/01/18 11:40:57;;;;;;;6.13;3.13;;;;;;;1.36;100.00;100172.97;4890333;29;20040;-95
2024/01/18 11:43:24;;;;;;;4.28;2.00;;;;;;;1.40;100.00;100173.59;4919106;29;20075;-94
2024/01/18 11:45:51;;;;;;;5.72;2.22;;;;;;;1.44;100.00;100174.25;4915503;29;20039;-95
2024/01/18 11:48:18;;;;;;;7.63;1.85;;;;;;;1.54;100.00;100184.97;4900519;29;20390;-96
2024/01/18 11:50:44;;;;;;;6.57;3.05;;;;;;;1.60;100.00;100184.59;4884153;29;20090;-94
2024/01/18 11:53:14;;;;;;;4.25;1.58;;;;;;;1.66;100.00;100178.16;4885997;29;20489;-94
2024/01/18 11:55:48;;;;;;;3.25;1.73;;;;;;;1.79;100.00;100180.88;4893134;29;20050;-94
2024/01/18 11:58:14;;;;;;;5.05;2.10;;;;;;;1.82;100.00;100188.50;4899832;29;20075;-94
2024/01/18 12:00:41;;;;;;;3.90;1.90;;;;;;;1.88;100.00;100188.13;4906148;29;20073;-96
2024/01/18 12:03:11;;;;;;;7.78;2.05;;;;;;;1.90;100.00;100185.41;4904281;29;20059;-96
2024/01/18 12:05:39;;;;;;;5.07;1.83;;;;;;;1.92;100.00;100183.56;4911445;29;20047;-96
2024/01/18 12:08:06;;;;;;;3.17;1.48;;;;;;;1.97;100.00;100186.72;4888560;29;20128;-96
2024/01/18 12:10:32;;;;;;;8.80;2.00;;;;;;;2.00;100.00;100183.09;4903244;29;20044;-95
2024/01/18 12:12:58;;;;;;;4.07;1.88;;;;;;;2.06;100.00;100191.38;4889245;29;20051;-96
2024/01/18 12:15:24;;;;;;;4.20;2.08;;;;;;;2.14;100.00;100198.72;4881599;29;20036;-96
2024/01/18 12:17:55;;;;;;;4.85;1.77;;;;;;;2.23;100.00;100205.13;4888874;29;20039;-96
2024/01/18 12:20:20;;;;;;;3.75;1.85;;;;;;;2.21;100.00;100207.81;4913899;29;20135;-95
2024/01/18 12:22:46;;;;;;;3.63;1.80;;;;;;;2.23;100.00;100205.13;4884015;29;20130;-96
2024/01/18 12:25:12;;;;;;;4.53;1.45;;;;;;;2.25;100.00;100212.84;4889236;29;20036;-95
2024/01/18 12:27:40;;;;;;;5.50;2.08;;;;;;;2.41;100.00;100224.00;4888641;29;20122;-95
2024/01/18 12:30:06;;;;;;;2.90;1.45;;;;;;;2.41;100.00;100218.78;4882473;29;20039;-94
2024/01/18 12:32:35;;;;;;;1.90;1.52;;;;;;;2.46;100.00;100221.94;4899957;29;20107;-95
2024/01/18 12:35:01;;;;;;;4.57;1.95;;;;;;;2.44;100.00;100236.84;4884754;29;20051;-95
2024/01/18 12:37:29;;;;;;;6.38;2.40;;;;;;;2.44;100.00;100228.16;4897504;29;20118;-96
2024/01/18 12:39:55;;;;;;;3.33;2.00;;;;;;;2.42;100.00;100237.88;4899868;29;20035;-96
2024/01/18 12:42:21;;;;;;;4.50;1.85;;;;;;;2.39;100.00;100232.88;4887840;29;20127;-94
2024/01/18 12:44:53;;;;;;;3.42;2.28;;;;;;;2.47;100.00;100222.75;4900872;29;20035;-94
2024/01/18 12:47:19;;;;;;;5.65;2.20;;;;;;;2.47;100.00;100234.03;4898627;29;20211;-94
2024/01/18 12:49:45;;;;;;;4.53;2.13;;;;;;;2.52;100.00;100231.13;4885482;29;20268;-94
2024/01/18 12:52:14;;;;;;;6.03;2.45;;;;;;;2.55;100.00;100236.16;4901390;29;20066;-93
2024/01/18 12:54:39;;;;;;;4.15;2.22;;;;;;;2.55;100.00;100228.34;4914317;29;20043;-90
2024/01/18 12:57:05;;;;;;;6.57;2.42;;;;;;;2.56;100.00;100235.25;4899997;29;20514;-94
2024/01/18 12:59:32;;;;;;;5.43;2.47;;;;;;;2.63;100.00;100245.28;4901400;29;20158;-94
2024/01/18 13:01:58;;;;;;;14.43;10.15;;;;;;;2.67;100.00;100246.75;4893939;29;20051;-94
2024/01/18 13:04:32;;;;;;;4.72;1.75;;;;;;;2.82;100.00;100251.00;4901972;29;20050;-94
2024/01/18 13:06:59;;;;;;;2.58;1.80;;;;;;;2.82;100.00;100251.00;4900193;29;20040;-93
2024/01/18 13:09:27;;;;;;;5.45;2.13;;;;;;;2.85;100.00;100247.38;4891674;29;20047;-93
2024/01/18 13:12:02;;;;;;;5.03;2.85;;;;;;;2.97;100.00;100253.56;4897490;29;20413;-93
2024/01/18 13:14:29;;;;;;;4.63;2.10;;;;;;;2.96;100.00;100249.28;4883790;29;20115;-93
2024/01/18 13:16:56;;;;;;;6.03;3.00;;;;;;;2.96;100.00;100250.09;4914880;29;20106;-94
2024/01/18 13:19:22;;;;;;;6.22;4.32;;;;;;;3.00;100.00;100249.91;4903687;29;20036;-95
2024/01/18 13:21:48;;;;;;;23.30;13.57;;;;;;;3.01;100.00;100252.41;4921611;29;20051;-95
2024/01/18 13:24:14;;;;;;;8.40;3.90;;;;;;;3.04;100.00;100252.22;4885620;29;20046;-94
2024/01/18 13:26:41;;;;;;;4.60;2.88;;;;;;;3.12;100.00;100264.78;4903019;29;20095;-94
2024/01/18 13:29:08;;;;;;;6.47;3.00;;;;;;;3.06;100.00;100257.31;4894965;29;20039;-95
2024/01/18 13:31:35;;;;;;;7.07;3.15;;;;;;;3.03;100.00;100262.75;4881486;29;20368;-94
2024/01/18 13:34:02;;;;;;;6.40;3.33;;;;;;;3.02;100.00;100268.91;4893414;29;20043;-95
2024/01/18 13:36:29;;;;;;;4.93;3.10;;;;;;;3.01;100.00;100265.47;4924160;29;20155;-94
2024/01/18 13:38:55;;;;;;;5.55;3.00;;;;;;;2.97;100.00;100269.22;4905195;29;20488;-95
2024/01/18 13:41:22;;;;;;;6.75;3.10;;;;;;;2.96;100.00;100268.38;4898965;29;20095;-92
2024/01/18 13:43:48;;;;;;;4.05;2.75;;;;;;;2.92;100.00;100276.50;4891425;29;20067;-95
2024/01/18 13:46:14;;;;;;;3.83;2.53;;;;;;;2.87;100.00;100266.34;4886474;29;20047;-96
2024/01/18 13:48:43;;;;;;;7.28;2.55;;;;;;;2.93;100.00;100267.75;4882922;29;20114;-96
2024/01/18 13:51:09;;;;;;;4.28;2.20;;;;;;;2.85;100.00;100270.88;4899697;29;20061;-95
2024/01/18 13:53:35;;;;;;;10.13;3.65;;;;;;;2.82;100.00;100265.84;4883779;29;20489;-94
2024/01/18 13:56:02;;;;;;;4.35;3.25;;;;;;;2.86;100.00;100269.91;4896420;29;20091;-94
2024/01/18 13:58:28;;;;;;;5.03;3.42;;;;;;;2.85;100.00;100268.25;4904877;29;20053;-94
2024/01/18 14:00:53;;;;;;;8.75;3.88;;;;;;;2.84;100.00;100264.78;4885114;29;20110;-95
2024/01/18 14:03:46;;;;;;;6.53;3.78;;;;;;;2.88;100.00;100259.38;4896852;29;20043;-95
2024/01/18 14:06:15;;;;;;;6.80;3.15;;;;;;;2.84;100.00;100264.78;4896884;29;20047;-94
2024/01/18 14:08:45;;;;;;;5.13;3.03;;;;;;;2.83;100.00;100257.06;4899768;29;20040;-94
2024/01/18 14:11:15;;;;;;;6.25;2.92;;;;;;;2.84;100.00;100270.00;4900642;29;20059;-96
2024/01/18 14:13:42;;;;;;;3.92;2.53;;;;;;;2.83;100.00;100270.13;4887277;29;20395;-96
2024/01/18 14:16:33;;;;;;;6.72;2.97;;;;;;;2.84;100.00;100272.63;4902014;29;20493;-94
2024/01/18 14:19:01;;;;;;;7.63;3.15;;;;;;;2.80;100.00;100280.75;4890371;29;20058;-95
2024/01/18 14:21:27;;;;;;;4.95;2.85;;;;;;;2.78;100.00;100286.06;4892870;29;20520;-96
2024/01/18 14:23:53;;;;;;;6.65;3.97;;;;;;;2.78;100.00;100282.63;4900097;29;20039;-96
2024/01/18 14:26:25;;;;;;;4.45;3.20;;;;;;;2.78;100.00;100270.41;4898065;29;20098;-95
2024/01/18 14:28:51;;;;;;;11.40;5.18;;;;;;;2.81;100.00;100285.03;4901873;29;20056;-96
2024/01/18 14:31:17;;;;;;;8.10;4.60;;;;;;;2.75;100.00;100281.03;4905234;29;20488;-86
2024/01/18 14:33:43;;;;;;;5.35;3.65;;;;;;;2.74;100.00;100281.97;4900004;29;20047;-96
2024/01/18 14:36:15;;;;;;;8.38;2.63;;;;;;;2.79;100.00;100279.91;4881867;29;20035;-96
2024/01/18 14:39:30;;;;;;;4.05;2.55;;;;;;;2.77;100.00;100286.16;4925235;29;20064;-96
2024/01/18 14:41:57;;;;;;;5.43;2.30;;;;;;;2.80;100.00;100288.59;4904810;29;20056;-96
2024/01/18 14:44:23;;;;;;;4.75;2.50;;;;;;;2.81;100.00;100304.16;4880175;29;20499;-96
2024/01/18 14:46:49;;;;;;;8.68;2.90;;;;;;;2.80;100.00;100294.63;4885926;29;20047;-93
2024/01/18 14:49:18;;;;;;;6.15;2.63;;;;;;;2.83;100.00;100301.44;4905585;29;20059;-94
2024/01/18 14:51:44;;;;;;;4.38;2.38;;;;;;;2.82;100.00;100297.97;4896851;29;20039;-94
2024/01/18 14:54:10;;;;;;;4.78;2.78;;;;;;;2.80;100.00;100288.59;4902327;29;20493;-95
2024/01/18 14:56:36;;;;;;;9.65;3.65;;;;;;;2.83;100.00;100304.06;4874414;29;20066;-93
2024/01/18 14:59:06;;;;;;;12.82;6.95;;;;;;;2.87;100.00;100312.53;4884269;29;20036;-93
2024/01/18 15:02:26;;;;;;;16.98;9.55;;;;;;;2.91;100.00;100312.25;4907967;29;20162;-94
2024/01/18 15:05:01;;;;;;;63.17;27.55;;;;;;;2.92;100.00;100320.88;4903363;29;20044;-94
2024/01/18 15:07:27;;;;;;;79.80;34.60;;;;;;;2.87;100.00;100320.38;4883406;29;20036;-94
2024/01/18 15:09:56;;;;;;;76.45;35.13;;;;;;;2.91;100.00;100321.84;4883346;29;20432;-92
2024/01/18 15:12:22;;;;;;;55.30;26.25;;;;;;;2.87;100.00;100330.81;4887684;29;20031;-93
2024/01/18 15:14:49;;;;;;;19.35;10.15;;;;;;;2.82;100.00;100321.47;4901647;29;20039;-92
2024/01/18 15:17:15;;;;;;;24.80;12.13;;;;;;;2.81;100.00;100330.25;4886911;29;20123;-96
2024/01/18 15:19:42;;;;;;;11.02;4.63;;;;;;;2.79;100.00;100333.88;4922181;29;20061;-96
2024/01/18 15:22:10;;;;;;;27.70;12.75;;;;;;;2.81;100.00;100342.47;4895583;29;20051;-93
2024/01/18 15:24:36;;;;;;;17.10;10.68;;;;;;;2.78;100.00;100348.72;4903250;29;20997;-93
2024/01/18 15:27:02;;;;;;;15.98;9.70;;;;;;;2.72;100.00;100346.50;4901541;29;20036;-92
2024/01/18 15:29:28;;;;;;;8.95;4.05;;;;;;;2.73;100.00;100356.00;4884939;29;20040;-93
2024/01/18 15:36:14;;;;;;;6.10;3.95;;;;;;;2.51;100.00;100351.25;4938183;29;20054;-93
2024/01/18 15:39:11;;;;;;;5.03;3.28;;;;;;;2.57;100.00;100372.59;4907937;29;20043;-94
2024/01/18 15:42:03;;;;;;;9.63;5.47;;;;;;;2.58;100.00;100374.28;4888901;29;20044;-94
2024/01/18 15:45:03;;;;;;;14.70;5.28;;;;;;;2.58;100.00;100382.09;4885850;29;20122;-94
2024/01/18 15:47:44;;;;;;;14.43;6.20;;;;;;;2.59;100.00;100391.63;4892178;29;20144;-94
2024/01/18 15:50:11;;;;;;;10.07;5.47;;;;;;;2.53;100.00;100386.78;4908012;29;20046;-94
2024/01/18 15:52:37;;;;;;;7.43;3.53;;;;;;;2.51;100.00;100388.63;4885823;29;20068;-93
2024/01/18 15:55:08;;;;;;;4.80;2.10;;;;;;;2.51;100.00;100393.84;4905002;29;20041;-94
2024/01/18 15:57:41;;;;;;;8.70;5.10;;;;;;;2.53;100.00;100407.66;4892772;29;20048;-95
2024/01/18 16:00:08;;;;;;;67.78;35.95;;;;;;;2.47;100.00;100408.84;4904648;29;20069;-93
2024/01/18 16:38:04;;;;;;;41.22;22.73;;;;;;;1.40;100.00;100465.28;4912775;29;20095;-94
2024/01/18 18:46:54;;;;;;;50.08;21.70;;;;;;;0.64;100.00;100600.22;4756121;30;20086;-94
2024/01/18 19:33:52;;;;;;;39.90;18.73;;;;;;;0.04;100.00;100653.34;4940490;29;20043;-93
2024/01/18 19:36:32;;;;;;;27.98;7.32;;;;;;;0.10;100.00;100669.50;4904964;29;20043;-92
2024/01/18 19:39:05;;;;;;;14.43;5.45;;;;;;;0.08;100.00;100673.09;4916911;29;20048;-93
2024/01/18 19:41:52;;;;;;;12.10;5.05;;;;;;;0.17;100.00;100672.66;4907240;29;20097;-93
2024/01/18 19:45:12;;;;;;;14.32;7.00;;;;;;;0.13;100.00;100667.69;4907197;29;20129;-94